createdAt,value
2018-01-16T00:00:36.789Z,992.53
2018-01-16T00:01:17.374Z,992.49
2018-01-16T00:01:57.927Z,992.46
2018-01-16T00:02:38.501Z,992.47
2018-01-16T00:03:19.060Z,992.45
2018-01-16T00:03:59.608Z,992.41
2018-01-16T00:04:40.166Z,992.4
2018-01-16T00:05:20.755Z,992.42
2018-01-16T00:06:01.325Z,992.45
2018-01-16T00:06:41.893Z,992.44
2018-01-16T00:07:22.449Z,992.45
2018-01-16T00:08:03.045Z,992.42
2018-01-16T00:08:43.608Z,992.33
2018-01-16T00:09:24.171Z,992.39
2018-01-16T00:10:04.756Z,992.38
2018-01-16T00:10:45.302Z,992.41
2018-01-16T00:11:25.869Z,992.38
2018-01-16T00:12:06.437Z,992.31
2018-01-16T00:12:47.006Z,992.33
2018-01-16T00:13:27.561Z,992.39
2018-01-16T00:14:08.123Z,992.22
2018-01-16T00:14:48.690Z,992.17
2018-01-16T00:15:29.328Z,992.06
2018-01-16T00:16:09.886Z,992.15
2018-01-16T00:16:50.434Z,992.17
2018-01-16T00:17:31.008Z,992.05
2018-01-16T00:18:11.607Z,992.05
2018-01-16T00:18:52.174Z,992.07
2018-01-16T00:19:32.744Z,992.17
2018-01-16T00:20:13.342Z,992.04
2018-01-16T00:20:53.921Z,992.11
2018-01-16T00:21:34.483Z,992.03
2018-01-16T00:22:15.057Z,991.99
2018-01-16T00:22:55.650Z,992.02
2018-01-16T00:23:36.215Z,991.98
2018-01-16T00:24:16.784Z,991.99
2018-01-16T00:24:57.344Z,991.95
2018-01-16T00:25:37.905Z,991.92
2018-01-16T00:26:18.469Z,991.87
2018-01-16T00:26:59.031Z,991.91
2018-01-16T00:27:39.589Z,991.95
2018-01-16T00:28:21.361Z,991.8
2018-01-16T00:29:01.952Z,991.88
2018-01-16T00:29:42.521Z,991.87
2018-01-16T00:30:23.084Z,991.81
2018-01-16T00:31:03.660Z,991.76
2018-01-16T00:31:44.228Z,991.8
2018-01-16T00:32:24.799Z,991.73
2018-01-16T00:33:05.356Z,991.63
2018-01-16T00:33:45.905Z,991.71
2018-01-16T00:34:26.471Z,991.68
2018-01-16T00:35:07.035Z,991.65
2018-01-16T00:35:47.619Z,991.64
2018-01-16T00:36:28.207Z,991.6
2018-01-16T00:37:08.762Z,991.57
2018-01-16T00:37:49.325Z,991.57
2018-01-16T00:38:29.889Z,991.64
2018-01-16T00:39:10.452Z,991.55
2018-01-16T00:39:51.065Z,991.56
2018-01-16T00:40:31.620Z,991.46
2018-01-16T00:41:12.199Z,991.53
2018-01-16T00:41:52.751Z,991.45
2018-01-16T00:42:33.321Z,991.43
2018-01-16T00:43:13.878Z,991.47
2018-01-16T00:43:54.437Z,991.44
2018-01-16T00:44:34.998Z,991.37
2018-01-16T00:45:15.565Z,991.39
2018-01-16T00:45:56.121Z,991.36
2018-01-16T00:46:36.680Z,991.38
2018-01-16T00:47:17.304Z,991.34
2018-01-16T00:47:57.821Z,991.35
2018-01-16T00:48:38.385Z,991.27
2018-01-16T00:49:18.959Z,991.15
2018-01-16T00:49:59.520Z,991.22
2018-01-16T00:50:40.081Z,991.22
2018-01-16T00:51:20.652Z,991.21
2018-01-16T00:52:01.217Z,991.21
2018-01-16T00:52:41.787Z,991.24
2018-01-16T00:53:22.363Z,991.16
2018-01-16T00:54:02.935Z,991.17
2018-01-16T00:54:43.515Z,991.15
2018-01-16T00:55:24.089Z,991.18
2018-01-16T00:56:04.650Z,991.06
2018-01-16T00:56:45.211Z,991.11
2018-01-16T00:57:25.780Z,991.04
2018-01-16T00:58:06.357Z,991.1
2018-01-16T00:58:46.921Z,991.07
2018-01-16T00:59:27.476Z,991.04
2018-01-16T01:00:08.030Z,990.86
2018-01-16T01:00:48.596Z,990.88
2018-01-16T01:01:29.158Z,990.99
2018-01-16T01:02:09.724Z,991.04
2018-01-16T01:02:50.282Z,990.98
2018-01-16T01:03:30.848Z,991
2018-01-16T01:04:11.418Z,991.06
2018-01-16T01:04:51.987Z,990.99
2018-01-16T01:05:32.599Z,990.91
2018-01-16T01:06:13.181Z,990.89
2018-01-16T01:06:53.723Z,990.93
2018-01-16T01:07:34.286Z,990.92
2018-01-16T01:08:14.852Z,990.8
2018-01-16T01:08:55.422Z,990.83
2018-01-16T01:09:35.999Z,990.88
2018-01-16T01:10:16.564Z,990.99
2018-01-16T01:10:57.145Z,990.84
2018-01-16T01:11:37.719Z,990.88
2018-01-16T01:12:18.284Z,990.72
2018-01-16T01:13:01.472Z,990.73
2018-01-16T01:13:42.038Z,990.66
2018-01-16T01:14:22.593Z,990.76
2018-01-16T01:15:03.152Z,990.72
2018-01-16T01:15:43.718Z,990.73
2018-01-16T01:16:24.276Z,990.87
2018-01-16T01:17:04.847Z,990.59
2018-01-16T01:17:45.408Z,990.51
2018-01-16T01:18:25.986Z,990.54
2018-01-16T01:19:06.547Z,990.69
2018-01-16T01:19:47.148Z,990.59
2018-01-16T01:20:27.713Z,990.63
2018-01-16T01:21:08.304Z,990.58
2018-01-16T01:21:48.875Z,990.57
2018-01-16T01:22:29.426Z,990.49
2018-01-16T01:23:09.988Z,990.55
2018-01-16T01:23:50.562Z,990.49
2018-01-16T01:24:31.114Z,990.47
2018-01-16T01:25:11.672Z,990.39
2018-01-16T01:25:52.245Z,990.37
2018-01-16T01:26:32.807Z,990.34
2018-01-16T01:27:13.372Z,990.37
2018-01-16T01:27:53.965Z,990.48
2018-01-16T01:28:34.540Z,990.39
2018-01-16T01:29:15.102Z,990.26
2018-01-16T01:29:55.660Z,990.25
2018-01-16T01:30:36.226Z,990.24
2018-01-16T01:31:16.788Z,990.25
2018-01-16T01:31:57.354Z,990.26
2018-01-16T01:32:37.927Z,990.17
2018-01-16T01:33:18.484Z,990.21
2018-01-16T01:33:59.067Z,990.24
2018-01-16T01:34:39.632Z,990.23
2018-01-16T01:35:20.191Z,990.11
2018-01-16T01:36:00.747Z,990.11
2018-01-16T01:36:41.293Z,990.11
2018-01-16T01:37:21.852Z,990.14
2018-01-16T01:38:02.422Z,990.04
2018-01-16T01:38:42.984Z,990.11
2018-01-16T01:39:23.563Z,990.09
2018-01-16T01:40:04.114Z,989.96
2018-01-16T01:40:44.669Z,990
2018-01-16T01:41:25.221Z,989.96
2018-01-16T01:42:05.795Z,989.97
2018-01-16T01:42:46.347Z,990.07
2018-01-16T01:43:26.905Z,989.9
2018-01-16T01:44:07.490Z,989.88
2018-01-16T01:44:48.053Z,989.89
2018-01-16T01:45:28.647Z,989.94
2018-01-16T01:46:09.209Z,989.88
2018-01-16T01:46:49.769Z,989.83
2018-01-16T01:47:30.338Z,989.86
2018-01-16T01:48:10.897Z,989.86
2018-01-16T01:48:51.576Z,989.78
2018-01-16T01:49:32.132Z,989.81
2018-01-16T01:50:12.686Z,989.94
2018-01-16T01:50:53.262Z,989.85
2018-01-16T01:51:33.820Z,989.79
2018-01-16T01:52:14.371Z,989.65
2018-01-16T01:52:54.935Z,989.72
2018-01-16T01:53:35.502Z,989.68
2018-01-16T01:54:16.055Z,989.72
2018-01-16T01:54:56.636Z,989.75
2018-01-16T01:55:37.189Z,989.75
2018-01-16T01:56:17.771Z,989.67
2018-01-16T01:56:58.343Z,989.69
2018-01-16T01:57:38.914Z,989.61
2018-01-16T01:58:19.477Z,989.62
2018-01-16T01:59:00.056Z,989.6
2018-01-16T01:59:40.622Z,989.65
2018-01-16T02:00:21.182Z,989.55
2018-01-16T02:01:01.735Z,989.54
2018-01-16T02:01:42.302Z,989.58
2018-01-16T02:02:22.856Z,989.48
2018-01-16T02:03:03.420Z,989.49
2018-01-16T02:03:43.990Z,989.42
2018-01-16T02:04:24.558Z,989.4
2018-01-16T02:05:05.131Z,989.37
2018-01-16T02:05:45.692Z,989.35
2018-01-16T02:06:26.242Z,989.43
2018-01-16T02:07:06.801Z,989.41
2018-01-16T02:07:47.377Z,989.46
2018-01-16T02:08:27.946Z,989.5
2018-01-16T02:09:08.525Z,989.45
2018-01-16T02:09:49.081Z,989.39
2018-01-16T02:10:29.637Z,989.3
2018-01-16T02:11:10.215Z,989.33
2018-01-16T02:11:50.777Z,989.3
2018-01-16T02:12:31.330Z,989.29
2018-01-16T02:13:11.931Z,989.35
2018-01-16T02:13:52.505Z,989.32
2018-01-16T02:14:33.058Z,989.26
2018-01-16T02:15:13.623Z,989.29
2018-01-16T02:15:54.177Z,989.31
2018-01-16T02:16:34.726Z,989.18
2018-01-16T02:17:15.285Z,989.11
2018-01-16T02:17:55.840Z,989.13
2018-01-16T02:18:36.428Z,989.07
2018-01-16T02:19:16.982Z,989.07
2018-01-16T02:19:57.548Z,989.14
2018-01-16T02:20:38.111Z,989.09
2018-01-16T02:21:18.696Z,989.04
2018-01-16T02:21:59.250Z,989.13
2018-01-16T02:22:39.844Z,989.01
2018-01-16T02:23:20.405Z,989.03
2018-01-16T02:24:00.964Z,989
2018-01-16T02:24:41.532Z,989.01
2018-01-16T02:25:22.087Z,988.9
2018-01-16T02:26:02.644Z,988.96
2018-01-16T02:26:43.197Z,988.96
2018-01-16T02:27:23.761Z,988.98
2018-01-16T02:28:04.329Z,988.97
2018-01-16T02:28:44.891Z,988.87
2018-01-16T02:29:25.486Z,988.85
2018-01-16T02:30:06.035Z,988.83
2018-01-16T02:30:46.598Z,988.88
2018-01-16T02:31:27.160Z,988.81
2018-01-16T02:32:07.718Z,988.79
2018-01-16T02:32:48.288Z,988.78
2018-01-16T02:33:28.840Z,988.73
2018-01-16T02:34:09.411Z,988.72
2018-01-16T02:34:49.969Z,988.78
2018-01-16T02:35:30.526Z,988.74
2018-01-16T02:36:11.097Z,988.68
2018-01-16T02:36:51.661Z,988.67
2018-01-16T02:37:32.209Z,988.63
2018-01-16T02:38:12.766Z,988.53
2018-01-16T02:38:53.332Z,988.52
2018-01-16T02:39:33.894Z,988.56
2018-01-16T02:40:14.461Z,988.49
2018-01-16T02:40:55.024Z,988.56
2018-01-16T02:41:35.572Z,988.53
2018-01-16T02:42:16.136Z,988.5
2018-01-16T02:42:56.689Z,988.58
2018-01-16T02:43:37.243Z,988.62
2018-01-16T02:44:17.815Z,988.55
2018-01-16T02:44:58.380Z,988.46
2018-01-16T02:45:38.945Z,988.44
2018-01-16T02:46:19.510Z,988.38
2018-01-16T02:47:00.072Z,988.44
2018-01-16T02:47:40.629Z,988.4
2018-01-16T02:48:21.201Z,988.41
2018-01-16T02:49:01.774Z,988.48
2018-01-16T02:49:42.336Z,988.46
2018-01-16T02:50:22.885Z,988.41
2018-01-16T02:51:03.446Z,988.33
2018-01-16T02:51:44.002Z,988.29
2018-01-16T02:52:24.582Z,988.29
2018-01-16T02:53:05.136Z,988.31
2018-01-16T02:53:45.694Z,988.36
2018-01-16T02:54:26.300Z,988.41
2018-01-16T02:55:06.834Z,988.4
2018-01-16T02:55:47.390Z,988.39
2018-01-16T02:56:27.935Z,988.36
2018-01-16T02:57:08.518Z,988.27
2018-01-16T02:57:49.076Z,988.3
2018-01-16T02:58:29.633Z,988.16
2018-01-16T02:59:10.196Z,988.12
2018-01-16T02:59:50.777Z,988.18
2018-01-16T03:00:31.359Z,988.16
2018-01-16T03:01:11.913Z,988.17
2018-01-16T03:01:52.487Z,988.2
2018-01-16T03:02:33.045Z,988.19
2018-01-16T03:03:13.624Z,988.13
2018-01-16T03:03:54.203Z,988.07
2018-01-16T03:04:34.747Z,988.13
2018-01-16T03:05:15.291Z,988.07
2018-01-16T03:05:55.850Z,988.05
2018-01-16T03:06:36.421Z,988.07
2018-01-16T03:07:17.005Z,988.02
2018-01-16T03:07:57.563Z,988.03
2018-01-16T03:08:38.131Z,988.07
2018-01-16T03:09:18.697Z,988
2018-01-16T03:09:59.260Z,987.98
2018-01-16T03:10:39.828Z,987.98
2018-01-16T03:11:20.386Z,987.96
2018-01-16T03:12:00.946Z,987.92
2018-01-16T03:12:41.506Z,987.95
2018-01-16T03:13:22.052Z,988.03
2018-01-16T03:14:02.650Z,988.02
2018-01-16T03:14:43.203Z,987.98
2018-01-16T03:15:23.762Z,987.95
2018-01-16T03:16:04.325Z,987.96
2018-01-16T03:16:44.903Z,987.97
2018-01-16T03:17:25.473Z,988.04
2018-01-16T03:18:06.061Z,988.1
2018-01-16T03:18:46.628Z,987.94
2018-01-16T03:19:27.202Z,988.01
2018-01-16T03:20:07.765Z,988
2018-01-16T03:20:48.344Z,987.96
2018-01-16T03:21:28.907Z,987.92
2018-01-16T03:22:09.469Z,987.8
2018-01-16T03:22:50.049Z,987.86
2018-01-16T03:23:30.612Z,987.78
2018-01-16T03:24:11.165Z,987.91
2018-01-16T03:24:51.739Z,987.92
2018-01-16T03:25:32.317Z,987.88
2018-01-16T03:26:12.867Z,987.92
2018-01-16T03:26:53.422Z,987.92
2018-01-16T03:27:33.991Z,987.89
2018-01-16T03:28:14.556Z,987.9
2018-01-16T03:28:55.117Z,987.88
2018-01-16T03:29:35.674Z,987.86
2018-01-16T03:30:16.246Z,987.89
2018-01-16T03:30:56.799Z,987.84
2018-01-16T03:31:37.374Z,987.85
2018-01-16T03:32:17.924Z,987.79
2018-01-16T03:32:58.484Z,987.83
2018-01-16T03:33:39.050Z,987.78
2018-01-16T03:34:19.624Z,987.75
2018-01-16T03:35:00.222Z,987.76
2018-01-16T03:35:40.780Z,987.75
2018-01-16T03:36:21.334Z,987.68
2018-01-16T03:37:01.889Z,987.72
2018-01-16T03:37:42.440Z,987.74
2018-01-16T03:38:23.002Z,987.68
2018-01-16T03:39:03.555Z,987.61
2018-01-16T03:39:44.114Z,987.43
2018-01-16T03:40:24.675Z,987.5
2018-01-16T03:41:05.246Z,987.65
2018-01-16T03:41:45.814Z,987.66
2018-01-16T03:42:26.387Z,987.57
2018-01-16T03:43:06.950Z,987.59
2018-01-16T03:43:47.523Z,987.55
2018-01-16T03:44:28.084Z,987.5
2018-01-16T03:45:08.657Z,987.5
2018-01-16T03:45:49.204Z,987.53
2018-01-16T03:46:29.761Z,987.58
2018-01-16T03:47:10.324Z,987.57
2018-01-16T03:47:50.875Z,987.45
2018-01-16T03:48:31.430Z,987.45
2018-01-16T03:49:11.985Z,987.44
2018-01-16T03:49:52.549Z,987.5
2018-01-16T03:50:33.138Z,987.41
2018-01-16T03:51:13.700Z,987.4
2018-01-16T03:51:54.254Z,987.44
2018-01-16T03:52:34.821Z,987.44
2018-01-16T03:53:15.397Z,987.41
2018-01-16T03:53:55.955Z,987.49
2018-01-16T03:54:36.518Z,987.42
2018-01-16T03:55:17.114Z,987.41
2018-01-16T03:55:57.673Z,987.39
2018-01-16T03:56:38.323Z,987.44
2018-01-16T03:57:18.884Z,987.36
2018-01-16T03:57:59.446Z,987.38
2018-01-16T03:58:40.004Z,987.28
2018-01-16T03:59:20.580Z,987.3
2018-01-16T04:00:01.146Z,987.36
2018-01-16T04:00:41.710Z,987.26
2018-01-16T04:01:22.282Z,987.26
2018-01-16T04:02:02.861Z,987.16
2018-01-16T04:02:43.431Z,987.24
2018-01-16T04:03:23.989Z,987.21
2018-01-16T04:04:04.550Z,987.23
2018-01-16T04:04:45.114Z,987.2
2018-01-16T04:05:25.678Z,987.22
2018-01-16T04:06:06.232Z,987.14
2018-01-16T04:06:46.791Z,987.17
2018-01-16T04:07:27.371Z,987.09
2018-01-16T04:08:07.919Z,987.13
2018-01-16T04:08:48.477Z,987.03
2018-01-16T04:09:29.036Z,987.02
2018-01-16T04:10:09.621Z,986.96
2018-01-16T04:10:50.203Z,987.04
2018-01-16T04:11:30.791Z,986.98
2018-01-16T04:12:11.347Z,986.95
2018-01-16T04:12:51.903Z,986.97
2018-01-16T04:13:32.462Z,986.96
2018-01-16T04:14:13.031Z,986.99
2018-01-16T04:14:53.601Z,987.04
2018-01-16T04:15:34.162Z,986.99
2018-01-16T04:16:14.745Z,987.01
2018-01-16T04:16:55.307Z,987.03
2018-01-16T04:17:35.859Z,986.94
2018-01-16T04:18:16.442Z,986.94
2018-01-16T04:18:57.000Z,986.92
2018-01-16T04:19:37.564Z,986.96
2018-01-16T04:20:18.137Z,986.93
2018-01-16T04:20:58.694Z,986.97
2018-01-16T04:21:39.250Z,986.9
2018-01-16T04:22:19.813Z,986.88
2018-01-16T04:23:00.411Z,986.86
2018-01-16T04:23:40.965Z,986.83
2018-01-16T04:24:21.533Z,986.82
2018-01-16T04:25:02.097Z,986.83
2018-01-16T04:25:42.653Z,986.82
2018-01-16T04:26:23.235Z,986.86
2018-01-16T04:27:03.796Z,986.93
2018-01-16T04:27:44.352Z,986.85
2018-01-16T04:28:24.912Z,986.81
2018-01-16T04:29:05.471Z,986.92
2018-01-16T04:29:46.030Z,986.84
2018-01-16T04:30:26.591Z,986.82
2018-01-16T04:31:07.153Z,986.86
2018-01-16T04:31:47.718Z,986.76
2018-01-16T04:32:28.282Z,986.87
2018-01-16T04:33:08.852Z,986.81
2018-01-16T04:33:49.413Z,986.85
2018-01-16T04:34:29.987Z,986.84
2018-01-16T04:35:10.550Z,986.83
2018-01-16T04:35:51.162Z,986.83
2018-01-16T04:36:31.715Z,986.79
2018-01-16T04:37:12.307Z,986.75
2018-01-16T04:37:52.900Z,986.79
2018-01-16T04:38:33.486Z,986.72
2018-01-16T04:39:14.048Z,986.68
2018-01-16T04:39:54.623Z,986.64
2018-01-16T04:40:35.200Z,986.65
2018-01-16T04:41:15.760Z,986.66
2018-01-16T04:41:56.324Z,986.63
2018-01-16T04:42:36.923Z,986.64
2018-01-16T04:43:17.488Z,986.61
2018-01-16T04:43:58.044Z,986.56
2018-01-16T04:44:38.607Z,986.55
2018-01-16T04:45:19.169Z,986.54
2018-01-16T04:45:59.742Z,986.5
2018-01-16T04:46:40.314Z,986.54
2018-01-16T04:47:20.879Z,986.56
2018-01-16T04:48:01.436Z,986.54
2018-01-16T04:48:41.989Z,986.58
2018-01-16T04:49:22.570Z,986.58
2018-01-16T04:50:03.126Z,986.51
2018-01-16T04:50:43.688Z,986.51
2018-01-16T04:51:24.256Z,986.59
2018-01-16T04:52:04.808Z,986.57
2018-01-16T04:52:45.364Z,986.52
2018-01-16T04:53:25.925Z,986.46
2018-01-16T04:54:06.500Z,986.5
2018-01-16T04:54:47.077Z,986.46
2018-01-16T04:55:27.624Z,986.46
2018-01-16T04:56:08.215Z,986.5
2018-01-16T04:56:48.772Z,986.42
2018-01-16T04:57:29.329Z,986.45
2018-01-16T04:58:09.889Z,986.49
2018-01-16T04:58:50.452Z,986.48
2018-01-16T04:59:31.033Z,986.53
2018-01-16T05:00:11.616Z,986.51
2018-01-16T05:00:52.191Z,986.47
2018-01-16T05:01:32.749Z,986.5
2018-01-16T05:02:13.316Z,986.49
2018-01-16T05:02:53.864Z,986.37
2018-01-16T05:03:34.466Z,986.38
2018-01-16T05:04:14.981Z,986.41
2018-01-16T05:04:55.548Z,986.45
2018-01-16T05:05:36.118Z,986.46
2018-01-16T05:06:16.686Z,986.36
2018-01-16T05:06:57.244Z,986.35
2018-01-16T05:07:37.803Z,986.35
2018-01-16T05:08:18.376Z,986.28
2018-01-16T05:08:58.942Z,986.35
2018-01-16T05:09:39.508Z,986.31
2018-01-16T05:10:20.080Z,986.35
2018-01-16T05:11:00.636Z,986.4
2018-01-16T05:11:41.201Z,986.38
2018-01-16T05:12:21.750Z,986.37
2018-01-16T05:13:02.315Z,986.4
2018-01-16T05:13:42.882Z,986.47
2018-01-16T05:14:23.448Z,986.41
2018-01-16T05:15:04.006Z,986.47
2018-01-16T05:15:44.590Z,986.52
2018-01-16T05:16:25.242Z,986.48
2018-01-16T05:17:05.830Z,986.49
2018-01-16T05:17:46.384Z,986.49
2018-01-16T05:18:26.960Z,986.43
2018-01-16T05:19:07.524Z,986.43
2018-01-16T05:19:48.078Z,986.49
2018-01-16T05:20:28.642Z,986.44
2018-01-16T05:21:09.191Z,986.46
2018-01-16T05:21:49.751Z,986.47
2018-01-16T05:22:30.311Z,986.44
2018-01-16T05:23:10.900Z,986.49
2018-01-16T05:23:51.458Z,986.53
2018-01-16T05:24:32.030Z,986.51
2018-01-16T05:25:12.596Z,986.46
2018-01-16T05:25:53.200Z,986.42
2018-01-16T05:26:33.761Z,986.41
2018-01-16T05:27:14.322Z,986.37
2018-01-16T05:27:54.880Z,986.38
2018-01-16T05:28:35.463Z,986.39
2018-01-16T05:29:16.029Z,986.36
2018-01-16T05:29:56.622Z,986.37
2018-01-16T05:30:37.179Z,986.4
2018-01-16T05:31:17.736Z,986.41
2018-01-16T05:31:58.294Z,986.47
2018-01-16T05:32:38.847Z,986.44
2018-01-16T05:33:19.407Z,986.44
2018-01-16T05:33:59.969Z,986.46
2018-01-16T05:34:40.527Z,986.46
2018-01-16T05:35:21.084Z,986.47
2018-01-16T05:36:01.638Z,986.44
2018-01-16T05:36:42.198Z,986.36
2018-01-16T05:37:22.755Z,986.37
2018-01-16T05:38:03.330Z,986.43
2018-01-16T05:38:43.884Z,986.45
2018-01-16T05:39:24.444Z,986.4
2018-01-16T05:40:05.002Z,986.45
2018-01-16T05:40:45.561Z,986.42
2018-01-16T05:41:26.139Z,986.43
2018-01-16T05:42:06.719Z,986.45
2018-01-16T05:42:47.275Z,986.45
2018-01-16T05:43:27.851Z,986.39
2018-01-16T05:44:08.487Z,986.41
2018-01-16T05:44:49.092Z,986.43
2018-01-16T05:45:29.616Z,986.44
2018-01-16T05:46:10.173Z,986.36
2018-01-16T05:46:50.752Z,986.42
2018-01-16T05:47:31.308Z,986.41
2018-01-16T05:48:11.874Z,986.44
2018-01-16T05:48:52.457Z,986.41
2018-01-16T05:49:33.025Z,986.45
2018-01-16T05:50:13.627Z,986.44
2018-01-16T05:50:54.209Z,986.45
2018-01-16T05:51:34.762Z,986.44
2018-01-16T05:52:15.323Z,986.51
2018-01-16T05:52:55.894Z,986.46
2018-01-16T05:53:36.461Z,986.49
2018-01-16T05:54:17.026Z,986.41
2018-01-16T05:54:57.598Z,986.47
2018-01-16T05:55:38.166Z,986.43
2018-01-16T05:56:18.732Z,986.44
2018-01-16T05:56:59.299Z,986.44
2018-01-16T05:57:39.861Z,986.39
2018-01-16T05:58:20.429Z,986.39
2018-01-16T05:59:00.987Z,986.29
2018-01-16T05:59:41.635Z,986.31
2018-01-16T06:00:22.231Z,986.28
2018-01-16T06:01:02.754Z,986.32
2018-01-16T06:01:43.339Z,986.35
2018-01-16T06:02:23.910Z,986.35
2018-01-16T06:03:04.472Z,986.38
2018-01-16T06:03:45.029Z,986.45
2018-01-16T06:04:25.586Z,986.42
2018-01-16T06:05:06.155Z,986.42
2018-01-16T06:05:46.713Z,986.42
2018-01-16T06:06:27.294Z,986.39
2018-01-16T06:07:07.852Z,986.4
2018-01-16T06:07:48.451Z,986.36
2018-01-16T06:08:29.005Z,986.36
2018-01-16T06:09:09.571Z,986.37
2018-01-16T06:09:50.135Z,986.37
2018-01-16T06:10:30.720Z,986.31
2018-01-16T06:11:11.318Z,986.35
2018-01-16T06:11:51.898Z,986.31
2018-01-16T06:12:32.525Z,986.35
2018-01-16T06:13:13.097Z,986.32
2018-01-16T06:13:53.681Z,986.32
2018-01-16T06:14:34.266Z,986.31
2018-01-16T06:15:14.810Z,986.34
2018-01-16T06:15:55.368Z,986.3
2018-01-16T06:16:35.935Z,986.32
2018-01-16T06:17:16.496Z,986.32
2018-01-16T06:17:57.067Z,986.32
2018-01-16T06:18:37.638Z,986.32
2018-01-16T06:19:18.196Z,986.33
2018-01-16T06:19:58.755Z,986.35
2018-01-16T06:20:39.310Z,986.33
2018-01-16T06:21:19.863Z,986.32
2018-01-16T06:22:00.470Z,986.34
2018-01-16T06:22:41.028Z,986.31
2018-01-16T06:23:21.632Z,986.33
2018-01-16T06:24:02.225Z,986.41
2018-01-16T06:24:42.777Z,986.37
2018-01-16T06:25:23.350Z,986.43
2018-01-16T06:26:03.905Z,986.39
2018-01-16T06:26:44.481Z,986.35
2018-01-16T06:27:25.025Z,986.33
2018-01-16T06:28:05.573Z,986.33
2018-01-16T06:28:46.170Z,986.34
2018-01-16T06:29:26.734Z,986.39
2018-01-16T06:30:07.296Z,986.33
2018-01-16T06:30:47.849Z,986.39
2018-01-16T06:31:28.428Z,986.31
2018-01-16T06:32:09.054Z,986.34
2018-01-16T06:32:49.635Z,986.32
2018-01-16T06:33:30.194Z,986.31
2018-01-16T06:34:10.788Z,986.29
2018-01-16T06:34:51.344Z,986.32
2018-01-16T06:35:31.942Z,986.28
2018-01-16T06:36:12.503Z,986.25
2018-01-16T06:36:53.078Z,986.29
2018-01-16T06:37:33.638Z,986.27
2018-01-16T06:38:14.234Z,986.31
2018-01-16T06:38:54.796Z,986.34
2018-01-16T06:39:35.357Z,986.32
2018-01-16T06:40:15.911Z,986.29
2018-01-16T06:40:56.464Z,986.3
2018-01-16T06:41:37.065Z,986.27
2018-01-16T06:42:17.662Z,986.25
2018-01-16T06:42:58.325Z,986.21
2018-01-16T06:43:38.896Z,986.23
2018-01-16T06:44:19.494Z,986.23
2018-01-16T06:45:00.074Z,986.27
2018-01-16T06:45:40.614Z,986.21
2018-01-16T06:46:21.182Z,986.21
2018-01-16T06:47:01.753Z,986.23
2018-01-16T06:47:42.327Z,986.21
2018-01-16T06:48:22.895Z,986.23
2018-01-16T06:49:03.463Z,986.23
2018-01-16T06:49:44.052Z,986.22
2018-01-16T06:50:24.653Z,986.22
2018-01-16T06:51:05.214Z,986.25
2018-01-16T06:51:45.775Z,986.19
2018-01-16T06:52:26.338Z,986.25
2018-01-16T06:53:06.907Z,986.28
2018-01-16T06:53:47.464Z,986.23
2018-01-16T06:54:28.045Z,986.22
2018-01-16T06:55:08.606Z,986.22
2018-01-16T06:55:49.164Z,986.27
2018-01-16T06:56:29.721Z,986.25
2018-01-16T06:57:10.284Z,986.24
2018-01-16T06:57:50.851Z,986.23
2018-01-16T06:58:31.412Z,986.23
2018-01-16T06:59:11.994Z,986.18
2018-01-16T06:59:52.549Z,986.2
2018-01-16T07:00:33.134Z,986.16
2018-01-16T07:01:13.713Z,986.18
2018-01-16T07:01:54.267Z,986.1
2018-01-16T07:02:34.835Z,986.13
2018-01-16T07:03:15.396Z,986.06
2018-01-16T07:03:55.992Z,986.09
2018-01-16T07:04:36.614Z,986.12
2018-01-16T07:05:17.302Z,986.09
2018-01-16T07:05:57.947Z,986.1
2018-01-16T07:06:38.628Z,986.15
2018-01-16T07:07:19.213Z,986.08
2018-01-16T07:07:59.803Z,986.1
2018-01-16T07:08:40.388Z,986.1
2018-01-16T07:09:21.013Z,986.15
2018-01-16T07:10:01.572Z,986.12
2018-01-16T07:10:42.154Z,986.11
2018-01-16T07:11:22.774Z,986.12
2018-01-16T07:12:03.334Z,986.15
2018-01-16T07:12:43.924Z,986.17
2018-01-16T07:14:56.736Z,986.18
2018-01-16T07:15:37.381Z,986.14
2018-01-16T07:16:18.004Z,986.16
2018-01-16T07:16:58.627Z,986.16
2018-01-16T07:17:39.228Z,986.16
2018-01-16T07:18:19.874Z,986.19
2018-01-16T07:19:00.557Z,986.23
2018-01-16T07:19:41.176Z,986.23
2018-01-16T07:20:21.815Z,986.23
2018-01-16T07:21:02.395Z,986.25
2018-01-16T07:21:43.029Z,986.25
2018-01-16T07:22:23.647Z,986.24
2018-01-16T07:23:04.274Z,986.29
2018-01-16T07:23:44.947Z,986.28
2018-01-16T07:24:25.556Z,986.29
2018-01-16T07:25:06.176Z,986.28
2018-01-16T07:25:46.774Z,986.25
2018-01-16T07:26:27.350Z,986.3
2018-01-16T07:27:07.939Z,986.27
2018-01-16T07:27:48.561Z,986.29
2018-01-16T07:28:29.277Z,986.3
2018-01-16T07:29:09.884Z,986.3
2018-01-16T07:29:50.468Z,986.24
2018-01-16T07:30:31.090Z,986.24
2018-01-16T07:31:11.725Z,986.24
2018-01-16T07:31:52.303Z,986.22
2018-01-16T07:32:32.937Z,986.2
2018-01-16T07:33:13.514Z,986.23
2018-01-16T07:33:54.145Z,986.18
2018-01-16T07:34:34.757Z,986.21
2018-01-16T07:35:15.411Z,986.13
2018-01-16T07:35:56.035Z,986.21
2018-01-16T07:36:36.600Z,986.2
2018-01-16T07:37:17.171Z,986.22
2018-01-16T07:37:57.721Z,986.2
2018-01-16T07:38:38.285Z,986.22
2018-01-16T07:39:18.847Z,986.24
2018-01-16T07:39:59.410Z,986.19
2018-01-16T07:40:39.986Z,986.22
2018-01-16T07:41:20.590Z,986.19
2018-01-16T07:42:01.160Z,986.19
2018-01-16T07:42:41.755Z,986.17
2018-01-16T07:43:22.362Z,986.14
2018-01-16T07:44:02.924Z,986.2
2018-01-16T07:44:43.494Z,986.18
2018-01-16T07:45:24.070Z,986.21
2018-01-16T07:46:04.659Z,986.19
2018-01-16T07:46:45.238Z,986.21
2018-01-16T07:47:25.837Z,986.16
2018-01-16T07:48:06.458Z,986.16
2018-01-16T07:48:47.023Z,986.15
2018-01-16T07:49:27.631Z,986.12
2018-01-16T07:50:08.217Z,986.16
2018-01-16T07:50:48.862Z,986.13
2018-01-16T07:51:29.481Z,986.15
2018-01-16T07:52:10.078Z,986.09
2018-01-16T07:52:50.880Z,986.07
2018-01-16T07:53:31.474Z,986.08
2018-01-16T07:54:12.067Z,986.05
2018-01-16T07:54:52.710Z,986.07
2018-01-16T07:55:33.339Z,986.02
2018-01-16T07:56:13.919Z,986.01
2018-01-16T07:56:54.558Z,986.02
2018-01-16T07:57:35.149Z,986.02
2018-01-16T07:58:15.704Z,986.06
2018-01-16T07:58:56.254Z,986.09
2018-01-16T07:59:36.991Z,986.05
2018-01-16T08:00:17.624Z,986.03
2018-01-16T08:00:58.200Z,986.03
2018-01-16T08:01:38.735Z,986.05
2018-01-16T08:02:19.302Z,986.01
2018-01-16T08:02:59.860Z,986.02
2018-01-16T08:03:40.431Z,986.03
2018-01-16T08:04:21.071Z,986.05
2018-01-16T08:05:01.662Z,986.01
2018-01-16T08:05:42.262Z,986.01
2018-01-16T08:06:22.852Z,985.96
2018-01-16T08:07:03.519Z,986
2018-01-16T08:07:44.090Z,985.97
2018-01-16T08:08:24.658Z,985.98
2018-01-16T08:09:05.220Z,985.96
2018-01-16T08:09:45.769Z,985.9
2018-01-16T08:10:26.362Z,985.89
2018-01-16T08:11:06.938Z,985.97
2018-01-16T08:11:47.543Z,985.99
2018-01-16T08:12:28.155Z,985.95
2018-01-16T08:13:08.718Z,985.96
2018-01-16T08:13:49.286Z,985.98
2018-01-16T08:14:29.931Z,985.97
2018-01-16T08:15:10.493Z,985.94
2018-01-16T08:15:51.087Z,985.95
2018-01-16T08:16:31.673Z,985.95
2018-01-16T08:17:12.234Z,985.97
2018-01-16T08:17:52.794Z,985.98
2018-01-16T08:18:33.357Z,985.95
2018-01-16T08:19:13.913Z,985.92
2018-01-16T08:19:54.458Z,985.93
2018-01-16T08:20:35.028Z,985.97
2018-01-16T08:21:15.598Z,985.92
2018-01-16T08:21:56.158Z,985.92
2018-01-16T08:22:36.775Z,985.86
2018-01-16T08:23:17.286Z,985.85
2018-01-16T08:23:57.882Z,985.81
2018-01-16T08:24:38.458Z,985.85
2018-01-16T08:25:19.038Z,985.86
2018-01-16T08:25:59.609Z,985.86
2018-01-16T08:26:40.188Z,985.86
2018-01-16T08:27:20.783Z,985.88
2018-01-16T08:28:01.377Z,985.92
2018-01-16T08:28:42.043Z,985.87
2018-01-16T08:29:22.613Z,985.85